Time;durP1;ratioP1;P1;durP2;ratioP2;P2;SDS_P1;SDS_P2;PMS_P1;PMS_P2;Temp;Humidity;BMP_temperature;BMP_pressure;BME280_temperature;BME280_humidity;BME280_pressure;Samples;Min_cycle;Max_cycle;Signal;HPM_P1;HPM_P2
2022/02/16 00:00:42;;;;;;;4.75;2.50;;;6.80;99.90;;;;;;6150738;23;20002;-80
2022/02/16 00:03:08;;;;;;;8.95;3.20;;;6.80;99.90;;;;;;6151337;23;20460;-79
2022/02/16 00:05:36;;;;;;;11.13;3.17;;;6.80;99.90;;;;;;6150529;23;20429;-80
2022/02/16 00:08:02;;;;;;;5.60;2.72;;;6.80;99.90;;;;;;6150822;23;20349;-80
2022/02/16 00:10:28;;;;;;;8.60;2.67;;;6.80;99.90;;;;;;6152701;23;20006;-81
2022/02/16 00:12:53;;;;;;;5.13;2.88;;;6.80;99.90;;;;;;6152856;23;20020;-81
2022/02/16 00:15:23;;;;;;;7.55;3.50;;;6.80;99.90;;;;;;6150912;23;20076;-80
2022/02/16 00:17:51;;;;;;;9.57;2.83;;;6.80;99.90;;;;;;6151989;23;20045;-80
2022/02/16 00:20:17;;;;;;;6.95;2.60;;;6.80;99.90;;;;;;6150763;23;20033;-79
2022/02/16 00:22:42;;;;;;;5.38;2.67;;;6.80;99.90;;;;;;6150876;23;20369;-80
2022/02/16 00:25:08;;;;;;;7.25;3.08;;;6.70;99.90;;;;;;6150661;23;20105;-79
2022/02/16 00:27:34;;;;;;;13.00;3.40;;;6.70;99.90;;;;;;6149814;23;20020;-79
2022/02/16 00:30:00;;;;;;;7.57;3.30;;;6.70;99.90;;;;;;6150244;23;20092;-79
2022/02/16 00:32:25;;;;;;;7.18;3.10;;;6.80;99.90;;;;;;6150648;23;20448;-79
2022/02/16 00:34:51;;;;;;;10.15;3.17;;;6.80;99.90;;;;;;6152418;23;20109;-79
2022/02/16 00:37:16;;;;;;;6.78;2.97;;;6.80;99.90;;;;;;6149770;23;20004;-80
2022/02/16 00:39:42;;;;;;;6.78;3.50;;;6.80;99.90;;;;;;6150446;23;20009;-80
2022/02/16 00:42:13;;;;;;;10.13;2.78;;;6.80;99.90;;;;;;6152309;23;20006;-80
2022/02/16 00:44:39;;;;;;;8.38;3.72;;;6.80;99.90;;;;;;6150309;23;20032;-82
2022/02/16 00:47:05;;;;;;;7.15;2.67;;;6.80;99.90;;;;;;6150910;23;20052;-80
2022/02/16 00:49:34;;;;;;;6.20;2.83;;;6.80;99.90;;;;;;6150273;23;20014;-83
2022/02/16 00:52:00;;;;;;;5.95;2.75;;;6.90;99.90;;;;;;6152592;23;20009;-83
2022/02/16 00:54:25;;;;;;;8.27;3.67;;;6.90;99.90;;;;;;6150950;23;20522;-83
2022/02/16 00:56:51;;;;;;;5.50;2.50;;;6.90;99.90;;;;;;6152558;23;19998;-80
2022/02/16 00:59:17;;;;;;;9.68;3.20;;;6.90;99.90;;;;;;6151921;23;20010;-82
2022/02/16 01:01:42;;;;;;;4.47;2.90;;;7.00;99.90;;;;;;6150706;23;20032;-83
2022/02/16 01:04:08;;;;;;;8.77;3.28;;;6.90;99.90;;;;;;6150377;23;20017;-81
2022/02/16 01:06:34;;;;;;;6.13;2.75;;;6.90;99.90;;;;;;6152554;23;20059;-81
2022/02/16 01:08:59;;;;;;;7.55;2.88;;;6.90;99.90;;;;;;6149752;23;20033;-82
2022/02/16 01:11:25;;;;;;;5.57;2.67;;;6.80;99.90;;;;;;6151986;23;20120;-82
2022/02/16 01:13:51;;;;;;;8.25;3.33;;;6.80;99.90;;;;;;6150848;23;20010;-82
2022/02/16 01:16:17;;;;;;;7.50;2.60;;;6.80;99.90;;;;;;6151772;23;20081;-83
2022/02/16 01:18:43;;;;;;;5.53;2.90;;;6.80;99.90;;;;;;6149748;23;20032;-82
2022/02/16 01:21:08;;;;;;;4.85;2.75;;;6.80;99.90;;;;;;6151941;23;20477;-84
2022/02/16 01:23:34;;;;;;;7.30;2.90;;;6.80;99.90;;;;;;6150181;23;20005;-85
2022/02/16 01:26:00;;;;;;;11.57;3.22;;;6.70;99.90;;;;;;6150755;23;20456;-83
2022/02/16 01:28:28;;;;;;;5.72;2.75;;;6.70;99.90;;;;;;6150663;23;20009;-82
2022/02/16 01:30:54;;;;;;;4.07;2.63;;;6.70;99.90;;;;;;6151746;23;20001;-82
2022/02/16 01:33:19;;;;;;;4.80;2.58;;;6.70;99.90;;;;;;6150054;23;20459;-82
2022/02/16 01:35:45;;;;;;;5.82;2.53;;;6.70;99.90;;;;;;6152414;23;20004;-84
2022/02/16 01:38:11;;;;;;;4.55;3.08;;;6.70;99.90;;;;;;6151080;23;20002;-82
2022/02/16 01:40:36;;;;;;;6.50;3.63;;;6.80;99.90;;;;;;6149986;23;20010;-82
2022/02/16 01:43:02;;;;;;;5.43;2.80;;;6.80;99.90;;;;;;6152516;23;20080;-83
2022/02/16 01:45:29;;;;;;;7.85;2.65;;;6.80;99.90;;;;;;6151921;23;20005;-84
2022/02/16 01:47:57;;;;;;;8.45;3.03;;;6.80;99.90;;;;;;6149624;23;20002;-84
2022/02/16 01:50:26;;;;;;;4.88;3.05;;;6.80;99.90;;;;;;6149784;23;20092;-84
2022/02/16 01:52:51;;;;;;;4.72;2.72;;;6.80;99.90;;;;;;6152284;23;20005;-83
2022/02/16 01:55:17;;;;;;;6.50;2.92;;;6.80;99.90;;;;;;6150747;23;20040;-83
2022/02/16 01:57:44;;;;;;;8.88;3.13;;;6.90;99.90;;;;;;6149291;23;20002;-83
2022/02/16 02:00:11;;;;;;;5.95;3.28;;;6.90;99.90;;;;;;6151373;23;19998;-83
2022/02/16 02:02:36;;;;;;;10.88;3.25;;;6.90;99.90;;;;;;6151675;23;20028;-81
2022/02/16 02:05:02;;;;;;;7.13;3.20;;;6.90;99.90;;;;;;6149890;23;20009;-82
2022/02/16 02:07:28;;;;;;;6.07;3.10;;;7.00;99.90;;;;;;6149430;23;20009;-83
2022/02/16 02:09:54;;;;;;;9.98;3.88;;;6.90;99.90;;;;;;6150201;23;20093;-82
2022/02/16 02:12:19;;;;;;;8.35;3.78;;;7.00;99.90;;;;;;6152024;23;20013;-82
2022/02/16 02:14:54;;;;;;;9.65;3.20;;;6.80;99.90;;;;;;6149868;23;20090;-82
2022/02/16 02:17:20;;;;;;;7.35;3.38;;;6.80;99.90;;;;;;6149160;23;20101;-83
2022/02/16 02:19:45;;;;;;;4.68;3.28;;;6.80;99.90;;;;;;6151826;23;20029;-82
2022/02/16 02:22:11;;;;;;;6.63;3.65;;;6.90;99.90;;;;;;6149473;23;20012;-82
2022/02/16 02:24:37;;;;;;;7.03;3.70;;;6.90;99.90;;;;;;6149670;23;20040;-82
2022/02/16 02:27:04;;;;;;;11.20;4.13;;;6.90;99.90;;;;;;6152059;23;20006;-80
2022/02/16 02:29:31;;;;;;;6.60;3.63;;;6.90;99.90;;;;;;6148385;23;20010;-80
2022/02/16 02:31:57;;;;;;;9.65;3.60;;;7.00;99.90;;;;;;6149444;23;20353;-80
2022/02/16 02:34:23;;;;;;;7.38;4.03;;;7.00;99.90;;;;;;6151041;23;20001;-80
2022/02/16 02:36:54;;;;;;;4.63;3.53;;;6.90;99.90;;;;;;6149633;23;20052;-80
2022/02/16 02:39:20;;;;;;;5.22;3.03;;;7.00;99.90;;;;;;6150654;23;20009;-79
2022/02/16 02:41:46;;;;;;;5.68;3.35;;;7.10;99.90;;;;;;6149583;23;20010;-79
2022/02/16 02:44:11;;;;;;;9.20;3.00;;;7.00;99.90;;;;;;6149574;23;20009;-80
2022/02/16 02:46:37;;;;;;;11.85;3.88;;;6.90;99.90;;;;;;6151565;23;20013;-80
2022/02/16 02:49:03;;;;;;;5.35;3.25;;;7.00;99.90;;;;;;6148782;23;20005;-81
2022/02/16 02:51:28;;;;;;;8.60;3.45;;;6.90;99.90;;;;;;6151678;23;20017;-82
2022/02/16 02:53:54;;;;;;;7.40;3.20;;;7.00;99.90;;;;;;6149749;23;20253;-81
2022/02/16 02:56:20;;;;;;;5.85;3.20;;;6.90;99.90;;;;;;6149591;23;20036;-81
2022/02/16 02:58:47;;;;;;;6.25;3.63;;;6.90;99.90;;;;;;6148321;23;20072;-81
2022/02/16 03:01:12;;;;;;;7.47;3.60;;;7.00;99.90;;;;;;6150962;23;20001;-81
2022/02/16 03:03:38;;;;;;;3.67;2.38;;;7.00;99.90;;;;;;6149369;23;20325;-81
2022/02/16 03:06:07;;;;;;;6.68;3.13;;;7.00;99.90;;;;;;6149301;23;20001;-81
2022/02/16 03:08:33;;;;;;;5.13;2.50;;;7.00;99.90;;;;;;6150086;23;19997;-80
2022/02/16 03:10:58;;;;;;;6.03;3.08;;;7.00;99.90;;;;;;6148886;23;20005;-81
2022/02/16 03:13:24;;;;;;;7.93;3.13;;;7.00;99.90;;;;;;6150694;23;20017;-81
2022/02/16 03:15:51;;;;;;;6.00;2.88;;;7.00;99.90;;;;;;6149475;23;20076;-80
2022/02/16 03:18:20;;;;;;;5.63;3.33;;;7.00;99.90;;;;;;6148891;23;20345;-81
2022/02/16 03:20:46;;;;;;;8.73;3.28;;;7.00;99.90;;;;;;6149478;23;20437;-80
2022/02/16 03:23:12;;;;;;;6.95;3.30;;;7.00;99.90;;;;;;6150388;23;20081;-80
2022/02/16 03:25:38;;;;;;;5.32;3.03;;;7.00;99.90;;;;;;6148887;23;20396;-81
2022/02/16 03:28:07;;;;;;;8.88;3.13;;;7.00;99.90;;;;;;6150374;23;20005;-81
2022/02/16 03:30:33;;;;;;;5.93;2.83;;;7.00;99.90;;;;;;6150156;23;20373;-81
2022/02/16 03:33:04;;;;;;;7.10;2.85;;;7.00;99.90;;;;;;6149363;23;20329;-81
2022/02/16 03:35:29;;;;;;;;;;;7.00;99.90;;;;;;6151496;23;20012;-80
2022/02/16 03:37:55;;;;;;;6.00;2.92;;;7.00;99.90;;;;;;6152111;23;19931;-81
2022/02/16 03:40:21;;;;;;;5.40;3.08;;;7.00;99.90;;;;;;6152792;23;20463;-80
2022/02/16 03:42:46;;;;;;;7.25;3.03;;;7.00;99.90;;;;;;6150810;23;20010;-81
2022/02/16 03:45:12;;;;;;;6.00;2.60;;;7.00;99.90;;;;;;6150776;23;20013;-81
2022/02/16 03:47:38;;;;;;;4.63;2.40;;;7.10;99.90;;;;;;6149776;23;20098;-81
2022/02/16 03:50:04;;;;;;;6.78;3.03;;;7.20;99.90;;;;;;6150476;23;20013;-81
2022/02/16 03:52:29;;;;;;;3.40;2.40;;;7.20;99.90;;;;;;6150860;23;20091;-81
2022/02/16 03:54:55;;;;;;;3.63;2.40;;;7.20;99.90;;;;;;6150468;23;20005;-81
2022/02/16 03:57:21;;;;;;;5.45;2.55;;;7.20;99.90;;;;;;6151327;23;20009;-81
2022/02/16 03:59:46;;;;;;;7.20;2.95;;;7.20;99.90;;;;;;6152379;23;20150;-81
2022/02/16 04:02:12;;;;;;;6.38;3.20;;;7.20;99.90;;;;;;6150985;23;20060;-82
2022/02/16 04:04:38;;;;;;;5.25;2.80;;;7.20;99.90;;;;;;6151124;23;20400;-82
2022/02/16 04:07:04;;;;;;;4.45;3.00;;;7.20;99.90;;;;;;6150828;23;20663;-82
2022/02/16 04:09:29;;;;;;;4.05;2.53;;;7.20;99.90;;;;;;6150580;23;20009;-82
2022/02/16 04:11:55;;;;;;;4.22;2.75;;;7.30;99.90;;;;;;6153038;23;20099;-81
2022/02/16 04:14:21;;;;;;;6.20;2.35;;;7.30;99.90;;;;;;6150349;23;20013;-82
2022/02/16 04:16:46;;;;;;;6.03;2.58;;;7.30;99.90;;;;;;6150750;23;20345;-82
2022/02/16 04:19:12;;;;;;;5.82;2.30;;;7.30;99.90;;;;;;6152613;23;20048;-81
2022/02/16 04:21:38;;;;;;;3.83;2.20;;;7.30;99.90;;;;;;6150562;23;20080;-81
2022/02/16 04:24:04;;;;;;;3.13;1.90;;;7.30;99.90;;;;;;6150644;23;20445;-81
2022/02/16 04:26:29;;;;;;;5.10;2.58;;;7.30;99.90;;;;;;6152658;23;20009;-80
2022/02/16 04:28:58;;;;;;;4.35;1.88;;;7.30;99.90;;;;;;6149945;23;20096;-80
2022/02/16 04:31:24;;;;;;;6.18;2.00;;;7.30;99.90;;;;;;6151686;23;20054;-80
2022/02/16 04:33:49;;;;;;;3.80;2.03;;;7.30;99.90;;;;;;6151261;23;20009;-80
2022/02/16 04:36:25;;;;;;;4.43;2.03;;;7.30;99.90;;;;;;6151112;23;20012;-80
2022/02/16 04:38:55;;;;;;;5.25;2.20;;;7.30;99.90;;;;;;6150507;23;20388;-80
2022/02/16 04:41:21;;;;;;;3.63;2.17;;;7.30;99.90;;;;;;6151458;23;19997;-80
2022/02/16 04:43:46;;;;;;;5.55;1.88;;;7.20;99.90;;;;;;6151468;23;20033;-81
2022/02/16 04:46:12;;;;;;;2.58;1.88;;;7.20;99.90;;;;;;6150570;23;20085;-82
2022/02/16 04:48:38;;;;;;;5.07;2.38;;;7.20;99.90;;;;;;6150486;23;20045;-81
2022/02/16 04:51:04;;;;;;;3.13;2.10;;;7.20;99.90;;;;;;6152998;23;20059;-80
2022/02/16 04:53:33;;;;;;;4.25;2.15;;;7.20;99.90;;;;;;6152577;23;20087;-81
2022/02/16 04:56:00;;;;;;;2.50;1.90;;;7.20;99.90;;;;;;6152086;23;19997;-80
2022/02/16 04:58:25;;;;;;;3.90;2.20;;;7.20;99.90;;;;;;6149696;23;20012;-80
2022/02/16 05:00:51;;;;;;;3.67;1.92;;;7.20;99.90;;;;;;6150137;23;20010;-79
2022/02/16 05:03:17;;;;;;;2.25;1.80;;;7.10;99.90;;;;;;6152257;23;20212;-80
2022/02/16 05:05:42;;;;;;;3.92;1.95;;;7.10;99.90;;;;;;6150348;23;20065;-81
2022/02/16 05:08:08;;;;;;;5.13;2.08;;;7.10;99.90;;;;;;6152028;23;20024;-82
2022/02/16 05:10:34;;;;;;;3.83;2.10;;;7.00;99.90;;;;;;6150851;23;20088;-82
2022/02/16 05:13:02;;;;;;;3.45;1.98;;;7.00;99.90;;;;;;6150273;23;20002;-82
2022/02/16 05:15:28;;;;;;;2.97;2.25;;;7.00;99.90;;;;;;6150748;23;20008;-83
2022/02/16 05:17:54;;;;;;;4.45;2.30;;;7.00;99.90;;;;;;6149114;23;20088;-77
2022/02/16 05:20:26;;;;;;;5.60;2.55;;;6.90;99.90;;;;;;6151360;23;20012;-77
2022/02/16 05:22:52;;;;;;;6.97;2.28;;;6.90;99.90;;;;;;6149413;23;20441;-78
2022/02/16 05:25:17;;;;;;;3.17;2.03;;;6.80;99.90;;;;;;6149394;23;20006;-77
2022/02/16 05:27:43;;;;;;;4.07;2.53;;;6.80;99.90;;;;;;6148750;23;20040;-77
2022/02/16 05:30:10;;;;;;;4.65;2.50;;;6.70;99.90;;;;;;6150734;23;20080;-79
2022/02/16 05:32:37;;;;;;;2.70;2.00;;;6.80;99.90;;;;;;6150099;23;20001;-79
2022/02/16 05:35:03;;;;;;;5.68;2.58;;;6.80;99.90;;;;;;6150393;23;20081;-79
2022/02/16 05:37:29;;;;;;;5.45;2.78;;;6.70;99.90;;;;;;6149764;23;20006;-81
2022/02/16 05:39:54;;;;;;;3.58;2.38;;;6.70;99.90;;;;;;6152014;23;20010;-82
2022/02/16 05:42:20;;;;;;;5.05;2.42;;;6.70;99.90;;;;;;6152420;23;20025;-81
2022/02/16 05:44:45;;;;;;;3.47;2.60;;;6.70;99.90;;;;;;6152749;23;20002;-81
2022/02/16 05:47:11;;;;;;;3.55;2.33;;;6.70;99.90;;;;;;6151353;23;20091;-81
2022/02/16 05:49:46;;;;;;;10.40;2.70;;;6.70;99.90;;;;;;6150625;23;20012;-81
2022/02/16 05:52:12;;;;;;;5.18;2.45;;;6.70;99.90;;;;;;6153861;23;20471;-83
2022/02/16 05:54:38;;;;;;;3.22;2.65;;;6.70;99.90;;;;;;6153611;23;20002;-83
2022/02/16 05:57:07;;;;;;;2.92;2.30;;;6.70;99.90;;;;;;6149345;23;20454;-82
2022/02/16 05:59:34;;;;;;;5.88;2.67;;;6.60;99.90;;;;;;6149950;23;20011;-82
2022/02/16 06:02:04;;;;;;;4.72;2.45;;;6.60;99.90;;;;;;6149762;23;20310;-83
2022/02/16 06:04:33;;;;;;;4.85;2.67;;;6.60;99.90;;;;;;6151806;23;20006;-80
2022/02/16 06:06:59;;;;;;;4.93;2.72;;;6.60;99.90;;;;;;6150750;23;20104;-82
2022/02/16 06:09:25;;;;;;;3.70;2.80;;;6.60;99.90;;;;;;6150703;23;20433;-80
2022/02/16 06:11:51;;;;;;;2.67;2.15;;;6.60;99.90;;;;;;6151430;23;20013;-80
2022/02/16 06:14:17;;;;;;;5.63;2.47;;;6.60;99.90;;;;;;6151378;23;20028;-80
2022/02/16 06:16:43;;;;;;;4.30;2.28;;;6.60;99.90;;;;;;6149902;23;20001;-79
2022/02/16 06:19:08;;;;;;;2.95;2.05;;;6.60;99.90;;;;;;6148490;23;20340;-80
2022/02/16 06:21:44;;;;;;;5.15;2.42;;;6.50;99.90;;;;;;6151166;23;20084;-79
2022/02/16 06:24:10;;;;;;;4.13;2.53;;;6.60;99.90;;;;;;6150073;23;20017;-80
2022/02/16 06:26:36;;;;;;;4.88;2.20;;;6.60;99.90;;;;;;6149923;23;20136;-80
2022/02/16 06:29:05;;;;;;;4.82;2.70;;;6.60;99.90;;;;;;6145456;23;20442;-81
2022/02/16 06:31:30;;;;;;;4.93;2.50;;;6.70;99.90;;;;;;6147265;23;20029;-80
2022/02/16 06:33:57;;;;;;;7.70;2.30;;;6.60;99.90;;;;;;6151911;23;20380;-80
2022/02/16 06:36:23;;;;;;;4.50;2.40;;;6.60;99.90;;;;;;6152250;23;20021;-80
2022/02/16 06:38:50;;;;;;;2.53;1.85;;;6.70;99.90;;;;;;6149558;23;20005;-80
2022/02/16 06:41:16;;;;;;;2.05;1.83;;;6.70;99.90;;;;;;6151029;23;20037;-80
2022/02/16 06:43:42;;;;;;;5.68;2.22;;;6.70;99.90;;;;;;6151710;23;20001;-83
2022/02/16 06:46:08;;;;;;;3.58;1.90;;;6.70;99.90;;;;;;6150740;23;20327;-81
2022/02/16 06:48:36;;;;;;;6.10;2.00;;;6.70;99.90;;;;;;6151860;23;20238;-80
2022/02/16 06:51:01;;;;;;;2.63;1.90;;;6.70;99.90;;;;;;6153655;23;20013;-81
2022/02/16 06:53:27;;;;;;;10.07;2.45;;;6.70;99.90;;;;;;6150523;23;20053;-80
2022/02/16 06:55:53;;;;;;;5.60;2.47;;;6.80;99.90;;;;;;6151456;23;20084;-80
2022/02/16 06:58:19;;;;;;;4.53;1.92;;;6.80;99.90;;;;;;6149288;23;20036;-80
2022/02/16 07:00:45;;;;;;;2.88;1.95;;;6.80;99.90;;;;;;6149280;23;20014;-82
2022/02/16 07:03:13;;;;;;;4.18;1.70;;;6.80;99.90;;;;;;6148403;23;20013;-80
2022/02/16 07:05:39;;;;;;;4.40;1.95;;;6.90;99.90;;;;;;6148645;23;20137;-79
2022/02/16 07:08:05;;;;;;;2.30;1.67;;;6.90;99.90;;;;;;6150071;23;20045;-78
2022/02/16 07:10:31;;;;;;;4.70;1.95;;;6.90;99.90;;;;;;6150711;23;20066;-77
2022/02/16 07:12:56;;;;;;;2.55;1.50;;;7.00;99.90;;;;;;6150706;23;20017;-74
2022/02/16 07:15:26;;;;;;;4.00;1.60;;;7.00;99.90;;;;;;6151619;23;20032;-76
2022/02/16 07:17:52;;;;;;;3.97;1.53;;;7.00;99.90;;;;;;6151633;23;20013;-76
2022/02/16 07:20:18;;;;;;;3.70;2.10;;;7.10;99.90;;;;;;6150331;23;20256;-76
2022/02/16 07:22:48;;;;;;;2.65;2.00;;;7.20;99.90;;;;;;6152199;23;20166;-76
2022/02/16 07:25:15;;;;;;;3.03;1.90;;;7.20;99.90;;;;;;6150541;23;20001;-76
2022/02/16 07:27:41;;;;;;;2.08;1.60;;;7.20;99.90;;;;;;6151456;23;20013;-76
2022/02/16 07:30:10;;;;;;;5.38;1.98;;;7.20;99.90;;;;;;6149597;23;20128;-76
2022/02/16 07:32:44;;;;;;;2.55;1.50;;;7.30;99.90;;;;;;6148290;23;20433;-74
2022/02/16 07:35:12;;;;;;;2.10;1.25;;;7.30;99.90;;;;;;6149334;23;20002;-76
2022/02/16 07:37:38;;;;;;;3.08;1.67;;;7.30;99.90;;;;;;6149361;23;20361;-77
2022/02/16 07:40:11;;;;;;;1.38;1.27;;;7.30;99.90;;;;;;6149848;23;20064;-75
2022/02/16 07:42:39;;;;;;;2.92;1.50;;;7.40;99.90;;;;;;6149742;23;20025;-75
2022/02/16 07:49:00;;;;;;;1.50;1.23;;;7.50;99.90;;;;;;6015255;23;20049;-76
2022/02/16 07:51:29;;;;;;;1.58;1.20;;;7.60;99.90;;;;;;6033152;23;20015;-75
2022/02/16 07:53:54;;;;;;;2.85;1.48;;;7.60;99.90;;;;;;6149829;23;20017;-76
2022/02/16 07:56:24;;;;;;;3.25;1.00;;;7.60;99.90;;;;;;6151011;23;20006;-77
2022/02/16 07:58:50;;;;;;;1.52;1.42;;;7.70;99.90;;;;;;6154958;23;20078;-80
2022/02/16 08:01:16;;;;;;;1.67;1.02;;;7.80;99.90;;;;;;6152574;23;20037;-80
2022/02/16 08:03:41;;;;;;;2.03;0.98;;;7.80;99.90;;;;;;6152561;23;20571;-80
2022/02/16 08:06:07;;;;;;;1.88;1.10;;;7.80;99.90;;;;;;6151881;23;20078;-79
2022/02/16 08:08:35;;;;;;;1.40;1.10;;;7.90;99.90;;;;;;6152815;23;20056;-80
2022/02/16 08:11:02;;;;;;;1.42;1.05;;;7.90;99.90;;;;;;6151779;23;20031;-80
2022/02/16 08:13:28;;;;;;;2.35;1.27;;;7.90;99.90;;;;;;6153174;23;20037;-80
2022/02/16 08:15:54;;;;;;;1.95;0.90;;;7.90;99.90;;;;;;6154537;23;20061;-80
2022/02/16 08:18:19;;;;;;;2.90;0.98;;;8.00;99.90;;;;;;6159436;23;20008;-80
2022/02/16 08:20:45;;;;;;;2.78;1.00;;;8.00;99.90;;;;;;6156559;23;20012;-80
2022/02/16 08:23:11;;;;;;;0.77;0.70;;;8.10;99.90;;;;;;6158798;23;20010;-81
2022/02/16 08:25:38;;;;;;;0.90;0.90;;;8.10;99.90;;;;;;6155981;23;20384;-80
2022/02/16 08:28:05;;;;;;;1.48;1.00;;;8.10;99.90;;;;;;6153572;23;20052;-80
2022/02/16 08:30:31;;;;;;;1.17;1.00;;;8.10;99.90;;;;;;6157777;23;20012;-80
2022/02/16 08:32:57;;;;;;;2.97;1.05;;;8.10;99.90;;;;;;6160434;23;20341;-80
2022/02/16 08:35:23;;;;;;;0.98;0.90;;;8.10;99.90;;;;;;6159520;23;20029;-80
2022/02/16 08:37:48;;;;;;;0.90;0.90;;;8.10;99.90;;;;;;6157933;23;20357;-80
2022/02/16 08:40:14;;;;;;;3.10;1.08;;;8.10;99.90;;;;;;6170737;23;20005;-80
2022/02/16 08:42:43;;;;;;;1.20;1.10;;;8.00;99.90;;;;;;6174627;23;20004;-80
2022/02/16 08:45:09;;;;;;;2.50;0.80;;;8.00;99.90;;;;;;6174038;23;20048;-80
2022/02/16 08:47:35;;;;;;;0.98;0.90;;;8.00;99.90;;;;;;6174559;23;20016;-80
2022/02/16 08:50:01;;;;;;;1.95;1.05;;;8.00;99.90;;;;;;6175634;23;20037;-80
2022/02/16 08:52:27;;;;;;;2.40;0.90;;;7.90;99.90;;;;;;6173423;23;20070;-80
2022/02/16 08:54:53;;;;;;;1.30;1.17;;;7.90;99.90;;;;;;6166396;23;20008;-80
2022/02/16 08:57:22;;;;;;;1.02;0.93;;;7.80;99.90;;;;;;6167510;23;20245;-81
2022/02/16 08:59:49;;;;;;;3.13;0.95;;;7.80;99.90;;;;;;6169920;23;20002;-81
2022/02/16 09:02:14;;;;;;;3.25;1.30;;;7.80;99.90;;;;;;6172814;23;20016;-80
2022/02/16 09:04:40;;;;;;;1.02;0.90;;;7.80;99.90;;;;;;6171696;23;20238;-81
2022/02/16 09:09:49;;;;;;;1.42;1.10;;;7.90;99.90;;;;;;6169429;23;20328;-80
2022/02/16 09:12:15;;;;;;;1.15;1.00;;;8.00;99.90;;;;;;6173088;23;19998;-80
2022/02/16 09:14:41;;;;;;;0.85;0.82;;;8.10;99.90;;;;;;6175441;23;20024;-81
2022/02/16 09:17:07;;;;;;;1.52;0.80;;;8.10;99.90;;;;;;6171794;23;20068;-80
2022/02/16 09:19:34;;;;;;;1.25;1.00;;;8.20;99.90;;;;;;6168805;23;20062;-80
2022/02/16 09:22:00;;;;;;;3.17;1.10;;;8.20;99.90;;;;;;6169401;23;20008;-81
2022/02/16 09:24:25;;;;;;;1.42;0.80;;;8.30;99.90;;;;;;6171752;23;20001;-81
2022/02/16 09:26:52;;;;;;;1.98;1.00;;;8.30;99.90;;;;;;6175073;23;20009;-80
2022/02/16 09:29:21;;;;;;;1.52;0.90;;;8.40;99.90;;;;;;6174255;23;20024;-80
2022/02/16 09:31:51;;;;;;;0.80;0.70;;;8.50;99.90;;;;;;6172430;23;20005;-80
2022/02/16 09:34:18;;;;;;;1.75;0.90;;;8.60;99.90;;;;;;6176633;23;20069;-81
2022/02/16 09:36:47;;;;;;;2.20;0.77;;;8.60;99.90;;;;;;6175552;23;19993;-80
2022/02/16 09:39:13;;;;;;;0.82;0.80;;;8.60;99.90;;;;;;6172313;23;20021;-80
2022/02/16 09:41:44;;;;;;;1.48;0.90;;;8.70;99.90;;;;;;6173375;23;19990;-80
2022/02/16 09:44:14;;;;;;;0.82;0.73;;;8.80;99.90;;;;;;6176303;23;19989;-80
2022/02/16 09:46:40;;;;;;;1.65;0.85;;;8.90;99.90;;;;;;6175313;23;20008;-80
2022/02/16 09:49:06;;;;;;;0.68;0.68;;;8.90;99.90;;;;;;6176983;23;20005;-80
2022/02/16 09:51:33;;;;;;;1.10;0.80;;;9.00;99.90;;;;;;6177183;23;20046;-80
2022/02/16 09:53:58;;;;;;;0.70;0.68;;;9.10;99.90;;;;;;6176278;23;20008;-80
2022/02/16 09:56:24;;;;;;;0.70;0.70;;;9.20;99.90;;;;;;6174001;23;20006;-80
2022/02/16 09:58:50;;;;;;;0.70;0.68;;;9.30;99.90;;;;;;6174469;23;20002;-80
2022/02/16 10:01:22;;;;;;;0.90;0.75;;;9.40;99.90;;;;;;6178128;23;20001;-80
2022/02/16 10:04:17;;;;;;;1.30;0.80;;;9.30;99.90;;;;;;6178838;23;20001;-81
2022/02/16 10:06:48;;;;;;;1.40;0.77;;;9.20;99.90;;;;;;6149724;23;20014;-80
2022/02/16 10:09:28;;;;;;;0.95;0.85;;;9.00;99.90;;;;;;6170862;23;20005;-81
2022/02/16 10:11:57;;;;;;;2.35;1.00;;;9.00;99.90;;;;;;6170990;23;20405;-80
2022/02/16 10:14:29;;;;;;;1.25;0.93;;;8.90;99.90;;;;;;6171673;23;20001;-80
2022/02/16 10:16:55;;;;;;;1.45;1.00;;;8.90;99.90;;;;;;6175720;23;20005;-80
2022/02/16 10:19:22;;;;;;;1.77;0.88;;;8.90;99.90;;;;;;6174259;23;20001;-80
2022/02/16 10:22:05;;;;;;;1.33;1.23;;;9.00;99.90;;;;;;6175827;23;20397;-80
2022/02/16 10:24:35;;;;;;;1.17;0.93;;;8.90;99.90;;;;;;6166029;23;20012;-80
2022/02/16 10:27:02;;;;;;;1.85;0.98;;;8.90;99.90;;;;;;6165765;23;20005;-80
2022/02/16 10:29:32;;;;;;;0.73;0.70;;;8.90;99.90;;;;;;6166143;23;20033;-81
2022/02/16 10:32:08;;;;;;;0.70;0.43;;;9.00;99.90;;;;;;6166230;23;20036;-80
2022/02/16 10:34:55;;;;;;;1.38;0.70;;;9.10;99.90;;;;;;6166673;23;20001;-80
2022/02/16 10:37:39;;;;;;;1.00;0.70;;;9.10;99.90;;;;;;6166674;23;20013;-81
2022/02/16 10:40:10;;;;;;;1.98;0.90;;;9.10;99.90;;;;;;6168934;23;20008;-81
2022/02/16 10:42:53;;;;;;;1.35;1.08;;;9.20;99.90;;;;;;6167300;23;20441;-81
2022/02/16 10:45:21;;;;;;;1.92;1.02;;;9.30;99.90;;;;;;6166229;23;20009;-81
2022/02/16 10:48:05;;;;;;;0.85;0.82;;;9.40;99.90;;;;;;6164285;23;20025;-81
2022/02/16 10:50:33;;;;;;;3.15;0.80;;;9.50;99.90;;;;;;6165496;23;20013;-81
2022/02/16 10:53:02;;;;;;;0.60;0.60;;;9.60;99.90;;;;;;6166311;23;20012;-81
2022/02/16 10:55:58;;;;;;;1.02;0.80;;;9.50;99.90;;;;;;6164272;23;19997;-81
2022/02/16 10:58:27;;;;;;;0.93;0.70;;;9.50;99.90;;;;;;6158993;23;20001;-80
2022/02/16 11:00:57;;;;;;;2.55;0.85;;;9.40;99.90;;;;;;6160297;23;20094;-81
2022/02/16 11:03:29;;;;;;;2.25;1.08;;;9.40;99.90;;;;;;6162154;23;20044;-80
2022/02/16 11:05:56;;;;;;;1.58;1.10;;;9.40;99.90;;;;;;6161439;23;20014;-81
2022/02/16 11:08:27;;;;;;;1.35;1.20;;;9.50;99.90;;;;;;6160625;23;20009;-81
2022/02/16 11:10:53;;;;;;;3.38;1.73;;;9.60;99.90;;;;;;6160534;23;20009;-81
2022/02/16 11:13:26;;;;;;;5.57;1.30;;;9.60;99.90;;;;;;6163924;23;20061;-81
2022/02/16 11:15:53;;;;;;;2.78;1.52;;;9.60;99.90;;;;;;6168246;23;20013;-82
2022/02/16 11:18:23;;;;;;;2.13;1.67;;;9.70;99.90;;;;;;6166525;23;20084;-81
2022/02/16 11:21:06;;;;;;;4.28;1.52;;;9.70;99.90;;;;;;6159560;23;20013;-80
2022/02/16 11:23:42;;;;;;;2.33;1.48;;;9.70;99.90;;;;;;6160337;23;20017;-81
2022/02/16 11:26:37;;;;;;;4.65;1.77;;;9.80;99.90;;;;;;6160727;23;20024;-80
2022/02/16 11:29:27;;;;;;;3.83;1.10;;;9.90;99.90;;;;;;6157557;23;20016;-81
2022/02/16 11:32:14;;;;;;;1.58;1.20;;;9.90;99.90;;;;;;6159581;23;19994;-81
2022/02/16 11:34:41;;;;;;;7.43;1.70;;;9.90;99.90;;;;;;6161478;23;19994;-81
2022/02/16 11:37:07;;;;;;;2.30;1.40;;;9.80;99.90;;;;;;6160508;23;20005;-81
2022/02/16 11:39:43;;;;;;;2.45;1.15;;;9.90;99.90;;;;;;6160087;23;20022;-81
2022/02/16 11:42:11;;;;;;;1.58;1.20;;;9.80;99.90;;;;;;6161464;23;20076;-82
2022/02/16 11:44:51;;;;;;;1.98;1.00;;;9.80;99.90;;;;;;6161794;23;20009;-81
2022/02/16 11:47:35;;;;;;;1.17;0.93;;;9.80;99.90;;;;;;6161415;23;19997;-81
2022/02/16 11:50:14;;;;;;;1.30;0.80;;;10.00;99.90;;;;;;6161365;23;20016;-82
2022/02/16 11:52:43;;;;;;;0.80;0.70;;;9.90;99.90;;;;;;6159771;23;20505;-80
2022/02/16 11:55:27;;;;;;;0.88;0.88;;;9.90;99.90;;;;;;6153972;23;20464;-81
2022/02/16 11:58:04;;;;;;;1.13;0.82;;;9.90;99.90;;;;;;6157584;23;20001;-80
2022/02/16 12:01:05;;;;;;;1.40;0.75;;;9.90;99.90;;;;;;6158807;23;20460;-80
2022/02/16 12:03:39;;;;;;;0.90;0.55;;;9.90;99.90;;;;;;6152629;23;20033;-82
2022/02/16 12:06:24;;;;;;;2.38;0.60;;;10.00;99.90;;;;;;6129780;23;20458;-82
2022/02/16 12:08:54;;;;;;;0.63;0.60;;;10.10;99.90;;;;;;6159159;23;20580;-81
2022/02/16 12:11:22;;;;;;;0.50;0.50;;;10.00;99.90;;;;;;6158127;23;19997;-81
2022/02/16 12:14:01;;;;;;;2.28;0.57;;;10.20;99.90;;;;;;6157805;23;20005;-81
2022/02/16 12:16:42;;;;;;;2.95;1.23;;;10.20;99.90;;;;;;6159820;23;20088;-81
2022/02/16 12:19:10;;;;;;;;;;;10.30;99.90;;;;;;6159642;23;20009;-81
2022/02/16 12:21:46;;;;;;;0.60;0.60;;;10.20;99.90;;;;;;6156171;23;19983;-81
2022/02/16 12:24:17;;;;;;;0.70;0.60;;;10.30;99.90;;;;;;6154635;23;20064;-82
2022/02/16 12:26:50;;;;;;;;;;;10.30;99.90;;;;;;6159593;23;20005;-81
2022/02/16 12:29:28;;;;;;;0.80;0.80;;;10.20;99.90;;;;;;6153454;23;19956;-81
2022/02/16 12:31:56;;;;;;;0.63;0.60;;;10.20;99.90;;;;;;6153073;23;20006;-80
2022/02/16 12:34:28;;;;;;;0.75;0.65;;;10.30;99.90;;;;;;6155887;23;20001;-81
2022/02/16 12:37:08;;;;;;;0.73;0.60;;;10.30;99.90;;;;;;6152614;23;20009;-81
2022/02/16 12:39:35;;;;;;;0.50;0.50;;;10.40;99.90;;;;;;6155384;23;20405;-81
2022/02/16 12:42:03;;;;;;;1.10;0.73;;;10.40;99.90;;;;;;6154462;23;20329;-81
2022/02/16 12:44:31;;;;;;;0.50;0.50;;;10.40;99.90;;;;;;6152093;23;20010;-80
2022/02/16 12:46:57;;;;;;;0.68;0.60;;;10.40;99.90;;;;;;6152040;23;20009;-81
2022/02/16 12:49:28;;;;;;;1.33;1.10;;;10.40;99.90;;;;;;6154680;23;19998;-81
2022/02/16 12:51:59;;;;;;;0.63;0.57;;;10.40;99.90;;;;;;6153543;23;20017;-80
2022/02/16 12:54:34;;;;;;;1.35;0.52;;;10.50;99.90;;;;;;6151687;23;20033;-81
2022/02/16 12:57:08;;;;;;;0.50;0.50;;;10.50;99.90;;;;;;6151400;23;20006;-80
2022/02/16 13:02:33;;;;;;;1.65;0.70;;;10.60;99.90;;;;;;6122195;23;20060;-81
2022/02/16 13:05:04;;;;;;;3.28;1.25;;;10.70;99.90;;;;;;6153133;23;20268;-80
2022/02/16 13:07:30;;;;;;;1.55;0.70;;;10.80;99.90;;;;;;6150056;23;20041;-81
2022/02/16 13:10:01;;;;;;;0.47;0.47;;;10.80;99.90;;;;;;6150775;23;20002;-81
2022/02/16 13:12:40;;;;;;;0.88;0.60;;;10.80;99.90;;;;;;6152790;23;20440;-82